createdAt,value
2023-05-08T00:02:18.645Z,14.70
2023-05-08T00:04:45.272Z,13.73
2023-05-08T00:07:12.558Z,17.20
2023-05-08T00:12:28.977Z,15.48
2023-05-08T00:14:56.296Z,16.40
2023-05-08T00:17:23.103Z,17.75
2023-05-08T00:19:49.838Z,16.13
2023-05-08T00:22:16.442Z,15.90
2023-05-08T00:24:42.998Z,17.13
2023-05-08T00:27:09.529Z,15.30
2023-05-08T00:29:36.789Z,17.42
2023-05-08T00:32:03.362Z,17.73
2023-05-08T00:34:29.918Z,15.30
2023-05-08T00:36:56.760Z,15.50
2023-05-08T00:39:23.330Z,16.05
2023-05-08T00:41:50.125Z,17.45
2023-05-08T00:44:17.727Z,14.43
2023-05-08T00:46:45.646Z,16.20
2023-05-08T00:49:14.571Z,17.60
2023-05-08T00:51:43.390Z,18.10
2023-05-08T00:54:10.812Z,15.55
2023-05-08T00:56:38.357Z,14.15
2023-05-08T00:59:09.993Z,13.65
2023-05-08T01:01:37.993Z,16.38
2023-05-08T01:04:05.348Z,18.00
2023-05-08T01:06:31.977Z,14.00
2023-05-08T01:08:58.822Z,15.88
2023-05-08T01:11:29.095Z,16.13
2023-05-08T01:14:26.572Z,18.10
2023-05-08T01:17:02.272Z,16.38
2023-05-08T01:19:34.815Z,15.57
2023-05-08T01:22:28.049Z,17.80
2023-05-08T01:25:06.726Z,19.52
2023-05-08T01:27:55.187Z,20.55
2023-05-08T01:31:06.740Z,19.67
2023-05-08T01:34:09.192Z,17.98
2023-05-08T01:36:46.157Z,15.45
2023-05-08T01:39:42.051Z,19.08
2023-05-08T01:42:13.909Z,20.88
2023-05-08T01:44:54.681Z,17.80
2023-05-08T01:47:25.991Z,17.80
2023-05-08T01:50:08.896Z,15.15
2023-05-08T01:52:47.329Z,15.75
2023-05-08T01:55:21.338Z,15.30
2023-05-08T01:57:52.080Z,17.13
2023-05-08T02:00:22.259Z,15.70
2023-05-08T02:02:51.252Z,17.63
2023-05-08T02:05:21.165Z,17.88
2023-05-08T02:07:49.673Z,17.10
2023-05-08T02:10:18.515Z,18.05
2023-05-08T02:12:46.939Z,17.40
2023-05-08T02:15:16.334Z,14.98
2023-05-08T02:17:46.048Z,21.20
2023-05-08T02:20:15.339Z,18.88
2023-05-08T02:22:48.431Z,19.35
2023-05-08T02:25:16.252Z,17.77
2023-05-08T02:27:45.734Z,17.45
2023-05-08T02:30:17.505Z,18.58
2023-05-08T02:32:46.183Z,16.05
2023-05-08T02:35:15.753Z,19.35
2023-05-08T02:37:49.468Z,17.00
2023-05-08T02:42:45.104Z,20.42
2023-05-08T02:45:12.422Z,17.02
2023-05-08T02:48:07.554Z,16.05
2023-05-08T02:51:08.715Z,16.10
2023-05-08T02:53:40.877Z,16.58
2023-05-08T02:56:22.107Z,18.90
2023-05-08T02:59:20.371Z,15.77
2023-05-08T03:02:04.040Z,18.23
2023-05-08T03:04:36.580Z,18.17
2023-05-08T03:07:04.742Z,17.50
2023-05-08T03:09:39.081Z,17.00
2023-05-08T03:12:11.384Z,21.08
2023-05-08T03:14:47.061Z,18.75
2023-05-08T03:17:17.156Z,16.58
2023-05-08T03:19:47.794Z,20.25
2023-05-08T03:22:16.142Z,23.77
2023-05-08T03:24:45.278Z,18.23
2023-05-08T03:27:13.310Z,20.65
2023-05-08T03:29:40.140Z,19.63
2023-05-08T03:32:07.953Z,17.73
2023-05-08T03:34:36.156Z,16.83
2023-05-08T03:37:03.418Z,17.42
2023-05-08T03:39:29.981Z,18.80
2023-05-08T03:41:56.986Z,20.42
2023-05-08T03:44:25.901Z,18.85
2023-05-08T03:46:55.840Z,17.38
2023-05-08T03:51:56.018Z,18.55
2023-05-08T03:54:25.660Z,19.92
2023-05-08T03:56:54.470Z,22.60
2023-05-08T03:59:43.320Z,18.30
2023-05-08T04:02:21.705Z,17.40
2023-05-08T04:04:55.659Z,19.10
2023-05-08T04:07:35.907Z,20.17
2023-05-08T04:10:27.521Z,19.67
2023-05-08T04:12:59.881Z,20.70
2023-05-08T04:15:30.980Z,47.08
2023-05-08T04:18:00.513Z,20.38
2023-05-08T04:20:29.374Z,18.75
2023-05-08T04:22:57.860Z,19.67
2023-05-08T04:25:25.976Z,20.45
2023-05-08T04:27:53.325Z,22.67
2023-05-08T04:30:20.456Z,19.25
2023-05-08T04:32:48.032Z,20.67
2023-05-08T04:35:14.908Z,21.52
2023-05-08T04:37:43.606Z,22.88
2023-05-08T04:40:10.924Z,26.02
2023-05-08T04:42:39.554Z,23.02
2023-05-08T04:45:07.164Z,24.95
2023-05-08T04:47:33.779Z,22.15
2023-05-08T04:50:02.239Z,23.80
2023-05-08T04:52:29.521Z,23.02
2023-05-08T04:54:56.083Z,23.52
2023-05-08T04:57:22.679Z,22.67
2023-05-08T04:59:49.286Z,25.30
2023-05-08T05:02:15.865Z,27.40
2023-05-08T05:04:42.447Z,25.65
2023-05-08T05:07:09.002Z,26.70
2023-05-08T05:09:37.165Z,26.77
2023-05-08T05:12:07.284Z,29.05
2023-05-08T05:14:34.204Z,24.95
2023-05-08T05:17:00.982Z,24.25
2023-05-08T05:19:27.584Z,26.00
2023-05-08T05:21:54.117Z,25.92
2023-05-08T05:24:20.704Z,33.70
2023-05-08T05:26:47.246Z,34.00
2023-05-08T05:29:13.803Z,29.33
2023-05-08T05:31:40.416Z,28.10
2023-05-08T05:34:07.317Z,25.15
2023-05-08T05:36:34.051Z,25.75
2023-05-08T05:39:00.935Z,25.30
2023-05-08T05:41:27.522Z,26.90
2023-05-08T05:43:54.136Z,24.27
2023-05-08T05:46:20.713Z,28.10
2023-05-08T05:48:47.398Z,28.80
2023-05-08T05:51:13.964Z,27.13
2023-05-08T05:53:40.549Z,26.05
2023-05-08T05:56:07.424Z,27.55
2023-05-08T05:58:34.429Z,27.90
2023-05-08T06:01:03.944Z,29.88
2023-05-08T06:03:30.778Z,30.60
2023-05-08T06:05:57.559Z,26.55
2023-05-08T06:08:24.395Z,26.63
2023-05-08T06:10:50.983Z,25.10
2023-05-08T06:13:17.646Z,27.90
2023-05-08T06:15:45.136Z,27.40
2023-05-08T06:18:12.053Z,26.55
2023-05-08T06:20:39.448Z,26.48
2023-05-08T06:23:06.322Z,27.25
2023-05-08T06:25:33.028Z,27.50
2023-05-08T06:27:59.894Z,26.70
2023-05-08T06:30:26.483Z,26.90
2023-05-08T06:32:53.043Z,23.75
2023-05-08T06:35:19.924Z,26.63
2023-05-08T06:37:49.273Z,27.83
2023-05-08T06:40:19.031Z,28.85
2023-05-08T06:42:46.266Z,29.15
2023-05-08T06:45:13.139Z,26.65
2023-05-08T06:47:39.958Z,28.75
2023-05-08T06:50:07.151Z,28.30
2023-05-08T06:52:33.796Z,24.85
2023-05-08T06:55:00.398Z,25.42
2023-05-08T06:57:29.242Z,26.65
2023-05-08T06:59:56.835Z,28.40
2023-05-08T07:02:23.652Z,28.10
2023-05-08T07:04:50.242Z,24.20
2023-05-08T07:07:16.857Z,24.75
2023-05-08T07:09:43.387Z,24.08
2023-05-08T07:12:09.990Z,28.55
2023-05-08T07:14:36.938Z,27.52
2023-05-08T07:17:07.676Z,26.40
2023-05-08T07:19:36.529Z,24.83
2023-05-08T07:22:03.435Z,22.80
2023-05-08T07:24:30.192Z,25.33
2023-05-08T07:26:57.310Z,25.13
2023-05-08T07:29:24.065Z,26.00
2023-05-08T07:31:52.113Z,25.73
2023-05-08T07:34:18.844Z,22.95
2023-05-08T07:36:45.584Z,27.73
2023-05-08T07:39:12.201Z,22.23
2023-05-08T07:41:40.989Z,29.55
2023-05-08T07:44:08.513Z,22.88
2023-05-08T07:46:35.359Z,25.77
2023-05-08T07:49:01.988Z,23.55
2023-05-08T07:51:29.667Z,26.13
2023-05-08T07:53:56.378Z,25.50
2023-05-08T07:56:23.151Z,25.15
2023-05-08T07:58:53.696Z,24.95
2023-05-08T08:01:20.374Z,22.67
2023-05-08T08:03:47.326Z,23.48
2023-05-08T08:06:14.459Z,25.77
2023-05-08T08:08:41.068Z,25.40
2023-05-08T08:11:07.724Z,24.40
2023-05-08T08:13:41.868Z,25.75
2023-05-08T08:16:08.495Z,27.13
2023-05-08T08:18:36.435Z,21.35
2023-05-08T08:21:07.535Z,23.30
2023-05-08T08:23:34.789Z,20.70
2023-05-08T08:26:01.472Z,21.98
2023-05-08T08:28:28.096Z,20.25
2023-05-08T08:30:55.158Z,21.02
2023-05-08T08:33:21.727Z,20.17
2023-05-08T08:35:48.408Z,19.23
2023-05-08T08:38:15.619Z,19.50
2023-05-08T08:40:43.329Z,17.52
2023-05-08T08:43:09.958Z,17.73
2023-05-08T08:45:37.548Z,16.88
2023-05-08T08:48:07.324Z,18.73
2023-05-08T08:50:36.420Z,17.05
2023-05-08T08:53:32.222Z,17.20
2023-05-08T08:56:02.264Z,16.83
2023-05-08T08:58:38.117Z,13.75
2023-05-08T09:01:07.761Z,15.60
2023-05-08T09:03:34.485Z,17.30
2023-05-08T09:06:01.785Z,23.10
2023-05-08T09:08:28.840Z,15.82
2023-05-08T09:10:56.401Z,13.57
2023-05-08T09:13:23.111Z,15.13
2023-05-08T09:15:52.471Z,15.25
2023-05-08T09:18:19.351Z,15.20
2023-05-08T09:20:46.568Z,14.55
2023-05-08T09:23:14.906Z,13.85
2023-05-08T09:25:45.949Z,15.30
2023-05-08T09:28:34.778Z,17.60
2023-05-08T09:31:02.510Z,15.93
2023-05-08T09:33:29.653Z,12.82
2023-05-08T09:35:57.534Z,12.52
2023-05-08T09:38:30.453Z,12.27
2023-05-08T09:41:12.649Z,12.90
2023-05-08T09:43:39.460Z,14.88
2023-05-08T09:46:26.495Z,17.20
2023-05-08T09:48:55.890Z,12.60
2023-05-08T09:51:23.858Z,12.55
2023-05-08T09:53:54.368Z,16.20
2023-05-08T09:56:34.151Z,12.25
2023-05-08T09:59:03.390Z,12.27
2023-05-08T10:01:36.992Z,12.27
2023-05-08T10:04:05.749Z,15.05
2023-05-08T10:06:32.760Z,12.63
2023-05-08T10:09:15.991Z,13.43
2023-05-08T10:11:52.951Z,11.30
2023-05-08T10:14:20.587Z,13.48
2023-05-08T10:16:49.258Z,13.68
2023-05-08T10:19:18.308Z,11.50
2023-05-08T10:21:48.324Z,14.07
2023-05-08T10:24:25.984Z,12.65
2023-05-08T10:27:06.748Z,12.35
2023-05-08T10:29:43.323Z,18.08
2023-05-08T10:32:10.760Z,15.85
2023-05-08T10:34:40.632Z,14.43
2023-05-08T10:37:11.094Z,11.55
2023-05-08T10:39:38.760Z,19.52
2023-05-08T10:42:05.406Z,11.75
2023-05-08T10:44:32.014Z,11.35
2023-05-08T10:47:07.739Z,12.38
2023-05-08T10:49:56.357Z,14.00
2023-05-08T10:52:43.942Z,11.75
2023-05-08T10:55:30.473Z,14.77
2023-05-08T10:58:07.034Z,12.93
2023-05-08T11:00:53.476Z,13.40
2023-05-08T11:03:31.518Z,13.05
2023-05-08T11:06:00.205Z,11.25
2023-05-08T11:08:28.824Z,11.15
2023-05-08T11:11:06.429Z,11.82
2023-05-08T11:13:44.350Z,11.60
2023-05-08T11:16:11.236Z,10.77
2023-05-08T11:18:49.078Z,11.13
2023-05-08T11:21:23.773Z,10.15
2023-05-08T11:23:58.232Z,9.82
2023-05-08T11:26:42.653Z,11.45
2023-05-08T11:29:18.426Z,8.57
2023-05-08T11:31:52.151Z,9.43
2023-05-08T11:34:44.017Z,10.57
2023-05-08T11:37:18.314Z,8.68
2023-05-08T11:39:45.008Z,9.00
2023-05-08T11:42:29.821Z,8.93
2023-05-08T11:45:04.527Z,11.77
2023-05-08T11:47:37.626Z,7.90
2023-05-08T11:52:36.091Z,7.45
2023-05-08T11:55:08.592Z,10.55
2023-05-08T11:57:35.361Z,10.23
2023-05-08T12:00:12.764Z,8.60
2023-05-08T12:02:43.918Z,9.55
2023-05-08T12:05:11.789Z,10.25
2023-05-08T12:07:46.647Z,9.52
2023-05-08T12:10:15.041Z,13.13
2023-05-08T12:12:44.189Z,12.93
2023-05-08T12:15:15.436Z,9.52
2023-05-08T12:17:43.286Z,9.25
2023-05-08T12:20:18.215Z,10.13
2023-05-08T12:22:53.663Z,13.15
2023-05-08T12:25:20.508Z,10.55
2023-05-08T12:27:47.462Z,11.55
2023-05-08T12:30:15.287Z,11.32
2023-05-08T12:32:46.375Z,9.48
2023-05-08T12:35:14.135Z,12.25
2023-05-08T12:37:40.810Z,9.82
2023-05-08T12:40:08.661Z,11.50
2023-05-08T12:42:44.547Z,9.02
2023-05-08T12:45:18.885Z,11.48
2023-05-08T12:47:47.412Z,11.63
2023-05-08T12:50:19.755Z,11.02
2023-05-08T12:52:48.838Z,9.63
2023-05-08T12:55:37.905Z,10.98
2023-05-08T12:58:15.052Z,11.10
2023-05-08T13:00:47.487Z,11.02
2023-05-08T13:03:23.946Z,9.40
2023-05-08T13:05:50.656Z,9.23
2023-05-08T13:08:17.524Z,9.30
2023-05-08T13:10:50.890Z,8.98
2023-05-08T13:13:22.936Z,13.52
2023-05-08T13:15:51.531Z,13.15
2023-05-08T13:18:19.411Z,13.13
2023-05-08T13:20:46.392Z,11.80
2023-05-08T13:23:13.583Z,11.80
2023-05-08T13:25:43.033Z,8.45
2023-05-08T13:28:10.803Z,12.73
2023-05-08T13:30:37.990Z,11.10
2023-05-08T13:33:05.371Z,11.15
2023-05-08T13:35:32.911Z,11.48
2023-05-08T13:37:59.834Z,7.85
2023-05-08T13:40:26.697Z,10.02
2023-05-08T13:42:53.909Z,11.70
2023-05-08T13:45:20.556Z,12.75
2023-05-08T13:47:48.553Z,11.82
2023-05-08T13:50:16.705Z,9.05
2023-05-08T13:52:43.334Z,10.10
2023-05-08T13:55:12.241Z,14.32
2023-05-08T13:57:39.748Z,10.77
2023-05-08T14:00:07.609Z,14.45
2023-05-08T14:02:34.533Z,10.60
2023-05-08T14:05:01.238Z,16.75
2023-05-08T14:07:28.210Z,14.20
2023-05-08T14:09:54.897Z,10.27
2023-05-08T14:12:21.427Z,12.57
2023-05-08T14:14:48.037Z,16.35
2023-05-08T14:17:14.542Z,15.00
2023-05-08T14:19:41.196Z,21.10
2023-05-08T14:22:07.725Z,12.10
2023-05-08T14:24:35.114Z,10.30
2023-05-08T14:27:05.799Z,7.93
2023-05-08T14:29:34.239Z,12.90
2023-05-08T14:32:01.302Z,9.73
2023-05-08T14:34:28.168Z,15.20
2023-05-08T14:36:55.010Z,11.75
2023-05-08T14:39:21.708Z,13.18
2023-05-08T14:42:05.773Z,9.65
2023-05-08T14:44:35.179Z,10.77
2023-05-08T14:47:01.770Z,10.80
2023-05-08T14:49:37.365Z,11.20
2023-05-08T14:52:05.647Z,9.75
2023-05-08T14:54:32.350Z,8.23
2023-05-08T14:56:59.189Z,13.82
2023-05-08T14:59:25.734Z,10.55
2023-05-08T15:01:52.357Z,9.77
2023-05-08T15:04:19.283Z,10.20
2023-05-08T15:06:46.178Z,14.88
2023-05-08T15:09:12.810Z,10.30
2023-05-08T15:11:39.510Z,12.25
2023-05-08T15:14:06.229Z,10.77
2023-05-08T15:16:32.884Z,8.02
2023-05-08T15:18:59.450Z,9.90
2023-05-08T15:21:26.865Z,8.77
2023-05-08T15:23:55.283Z,8.32
2023-05-08T15:26:22.917Z,9.13
2023-05-08T15:28:49.800Z,7.05
2023-05-08T15:31:16.950Z,8.73
2023-05-08T15:33:45.197Z,7.18
2023-05-08T15:36:13.568Z,8.55
2023-05-08T15:38:41.238Z,7.68
2023-05-08T15:41:07.904Z,7.43
2023-05-08T15:43:34.464Z,10.68
2023-05-08T15:46:01.174Z,9.77
2023-05-08T15:48:27.837Z,7.88
2023-05-08T15:50:54.653Z,8.55
2023-05-08T15:53:21.197Z,8.52
2023-05-08T15:55:47.800Z,9.02
2023-05-08T15:58:14.502Z,6.95
2023-05-08T16:00:45.217Z,7.38
2023-05-08T16:03:12.637Z,9.90
2023-05-08T16:05:39.619Z,6.85
2023-05-08T16:08:07.533Z,9.93
2023-05-08T16:10:34.433Z,6.72
2023-05-08T16:13:01.056Z,10.30
2023-05-08T16:15:27.898Z,7.10
2023-05-08T16:17:54.623Z,7.18
2023-05-08T16:20:21.302Z,8.02
2023-05-08T16:22:47.912Z,7.43
2023-05-08T16:25:14.695Z,10.18
2023-05-08T16:27:41.478Z,9.18
2023-05-08T16:30:08.681Z,8.60
2023-05-08T16:32:35.375Z,8.55
2023-05-08T16:35:02.024Z,4.85
2023-05-08T16:37:28.664Z,7.30
2023-05-08T16:39:55.229Z,8.52
2023-05-08T16:42:21.785Z,6.57
2023-05-08T16:44:48.384Z,6.78
2023-05-08T16:47:15.020Z,9.63
2023-05-08T16:49:41.682Z,7.13
2023-05-08T16:52:08.352Z,7.05
2023-05-08T16:54:35.054Z,8.65
2023-05-08T16:57:01.872Z,5.93
2023-05-08T16:59:28.453Z,7.47
2023-05-08T17:01:55.416Z,7.25
2023-05-08T17:04:22.028Z,8.30
2023-05-08T17:06:48.646Z,6.43
2023-05-08T17:09:18.493Z,9.70
2023-05-08T17:11:45.338Z,9.18
2023-05-08T17:14:11.901Z,11.55
2023-05-08T17:16:38.772Z,6.97
2023-05-08T17:19:05.330Z,10.65
2023-05-08T17:21:32.167Z,11.77
2023-05-08T17:24:02.145Z,7.78
2023-05-08T17:26:31.998Z,6.78
2023-05-08T17:28:58.565Z,7.72
2023-05-08T17:31:25.717Z,6.55
2023-05-08T17:33:52.384Z,5.57
2023-05-08T17:36:18.948Z,6.15
2023-05-08T17:38:46.466Z,7.85
2023-05-08T17:41:14.087Z,4.57
2023-05-08T17:43:40.735Z,9.80
2023-05-08T17:46:07.971Z,5.40
2023-05-08T17:48:35.231Z,7.25
2023-05-08T17:51:03.220Z,9.15
2023-05-08T17:53:33.157Z,4.85
2023-05-08T17:55:59.760Z,7.18
2023-05-08T17:58:26.757Z,11.65
2023-05-08T18:00:54.036Z,8.23
2023-05-08T18:03:20.828Z,7.10
2023-05-08T18:05:47.696Z,5.70
2023-05-08T18:08:14.323Z,8.70
2023-05-08T18:10:41.018Z,5.82
2023-05-08T18:13:08.002Z,6.32
2023-05-08T18:15:39.059Z,6.28
2023-05-08T18:18:05.855Z,6.72
2023-05-08T18:20:32.481Z,4.35
2023-05-08T18:22:59.038Z,4.97
2023-05-08T18:25:25.638Z,5.35
2023-05-08T18:27:52.206Z,8.32
2023-05-08T18:30:18.832Z,6.15
2023-05-08T18:32:45.465Z,5.93
2023-05-08T18:35:12.100Z,4.18
2023-05-08T18:37:38.622Z,5.65
2023-05-08T18:40:05.788Z,4.68
2023-05-08T18:42:32.316Z,4.57
2023-05-08T18:45:00.910Z,3.53
2023-05-08T18:47:27.578Z,4.47
2023-05-08T18:49:54.199Z,3.85
2023-05-08T18:52:20.783Z,10.70
2023-05-08T18:54:47.309Z,3.28
2023-05-08T18:57:13.908Z,6.93
2023-05-08T18:59:40.569Z,6.55
2023-05-08T19:02:07.182Z,3.65
2023-05-08T19:04:33.748Z,4.10
2023-05-08T19:07:01.005Z,2.95
2023-05-08T19:09:27.679Z,4.10
2023-05-08T19:11:54.398Z,4.30
2023-05-08T19:14:21.060Z,4.72
2023-05-08T19:16:47.657Z,4.15
2023-05-08T19:19:14.239Z,12.30
2023-05-08T19:21:40.779Z,6.57
2023-05-08T19:24:07.869Z,6.57
2023-05-08T19:26:34.476Z,3.75
2023-05-08T19:29:01.013Z,6.07
2023-05-08T19:31:27.594Z,5.20
2023-05-08T19:33:54.875Z,2.88
2023-05-08T19:36:21.494Z,3.17
2023-05-08T19:38:48.886Z,4.05
2023-05-08T19:41:17.309Z,9.70
2023-05-08T19:43:43.852Z,6.60
2023-05-08T19:46:10.582Z,4.18
2023-05-08T19:48:37.634Z,4.43
2023-05-08T19:51:08.760Z,4.82
2023-05-08T19:53:35.879Z,3.05
2023-05-08T19:56:02.592Z,5.22
2023-05-08T19:58:29.471Z,8.68
2023-05-08T20:00:56.317Z,4.82
2023-05-08T20:03:23.412Z,8.90
2023-05-08T20:05:53.208Z,3.97
2023-05-08T20:08:20.197Z,5.25
2023-05-08T20:10:49.582Z,5.45
2023-05-08T20:13:17.262Z,5.47
2023-05-08T20:15:43.917Z,5.22
2023-05-08T20:18:10.686Z,5.22
2023-05-08T20:20:37.213Z,6.30
2023-05-08T20:23:04.392Z,4.40
2023-05-08T20:25:31.225Z,6.07
2023-05-08T20:27:57.992Z,5.80
2023-05-08T20:30:24.599Z,6.63
2023-05-08T20:32:51.504Z,6.30
2023-05-08T20:35:18.334Z,6.53
2023-05-08T20:37:46.311Z,5.35
2023-05-08T20:40:13.896Z,6.05
2023-05-08T20:42:41.287Z,9.80
2023-05-08T20:45:08.910Z,6.57
2023-05-08T20:47:35.956Z,3.67
2023-05-08T20:50:03.397Z,5.25
2023-05-08T20:52:32.248Z,4.40
2023-05-08T20:54:59.610Z,8.25
2023-05-08T20:57:26.431Z,5.78
2023-05-08T20:59:53.048Z,8.63
2023-05-08T21:02:19.612Z,7.35
2023-05-08T21:04:46.332Z,6.10
2023-05-08T21:07:13.133Z,6.97
2023-05-08T21:09:39.748Z,4.90
2023-05-08T21:12:06.758Z,5.93
2023-05-08T21:14:34.990Z,8.93
2023-05-08T21:17:01.659Z,3.90
2023-05-08T21:19:28.269Z,7.15
2023-05-08T21:21:54.865Z,5.60
2023-05-08T21:24:21.608Z,5.70
2023-05-08T21:26:48.148Z,7.30
2023-05-08T21:29:14.929Z,5.50
2023-05-08T21:31:41.987Z,6.75
2023-05-08T21:34:08.756Z,6.97
2023-05-08T21:36:35.432Z,3.38
2023-05-08T21:39:02.881Z,6.18
2023-05-08T21:41:29.464Z,7.00
2023-05-08T21:43:56.334Z,7.85
2023-05-08T21:46:22.971Z,4.53
2023-05-08T21:48:49.588Z,7.63
2023-05-08T21:51:16.183Z,6.22
2023-05-08T21:53:42.712Z,9.23
2023-05-08T21:56:09.298Z,4.75
2023-05-08T21:58:35.887Z,6.03
2023-05-08T22:01:02.597Z,4.30
2023-05-08T22:03:29.476Z,6.68
2023-05-08T22:05:56.257Z,6.95
2023-05-08T22:08:22.878Z,9.25
2023-05-08T22:10:50.484Z,6.35
2023-05-08T22:13:17.382Z,6.25
2023-05-08T22:15:44.040Z,10.23
2023-05-08T22:18:10.531Z,7.30
2023-05-08T22:20:38.368Z,5.50
2023-05-08T22:23:04.932Z,7.47
2023-05-08T22:25:31.924Z,3.85
2023-05-08T22:27:58.667Z,8.30
2023-05-08T22:30:25.244Z,6.22
2023-05-08T22:32:57.297Z,4.75
2023-05-08T22:35:25.297Z,4.93
2023-05-08T22:37:53.003Z,9.25
2023-05-08T22:40:20.430Z,6.90
2023-05-08T22:42:47.540Z,3.72
2023-05-08T22:45:14.584Z,8.88
2023-05-08T22:47:41.592Z,7.18
2023-05-08T22:50:09.239Z,4.85
2023-05-08T22:52:36.354Z,11.23
2023-05-08T22:55:03.197Z,7.15
2023-05-08T22:57:29.867Z,8.43
2023-05-08T22:59:56.477Z,7.38
2023-05-08T23:02:23.318Z,4.72
2023-05-08T23:04:49.923Z,6.75
2023-05-08T23:07:16.827Z,5.60
2023-05-08T23:09:43.335Z,4.28
2023-05-08T23:12:09.936Z,7.40
2023-05-08T23:14:36.485Z,6.78
2023-05-08T23:17:03.088Z,6.97
2023-05-08T23:19:29.647Z,8.38
2023-05-08T23:21:56.440Z,7.40
2023-05-08T23:24:22.932Z,7.22
2023-05-08T23:26:49.835Z,8.10
2023-05-08T23:29:16.409Z,7.93
2023-05-08T23:31:43.010Z,6.90
2023-05-08T23:34:09.515Z,11.63
2023-05-08T23:36:36.065Z,10.27
2023-05-08T23:39:02.632Z,5.35
2023-05-08T23:41:29.429Z,5.43
2023-05-08T23:43:56.316Z,4.68
2023-05-08T23:46:24.931Z,9.20
2023-05-08T23:48:51.453Z,6.53
2023-05-08T23:51:18.250Z,7.32
2023-05-08T23:53:44.756Z,4.07
2023-05-08T23:56:11.365Z,4.90
2023-05-08T23:58:38.114Z,5.78
